sensor_id;sensor_type;location;lat;lon;timestamp;P1;durP1;ratioP1;P2;durP2;ratioP2
41921;SDS011;27609;51.002;5.354;2023-07-29T00:01:55;2.63;;;1.92;;
41921;SDS011;27609;51.002;5.354;2023-07-29T00:04:20;2.15;;;1.42;;
41921;SDS011;27609;51.002;5.354;2023-07-29T00:06:46;4.18;;;1.80;;
41921;SDS011;27609;51.002;5.354;2023-07-29T00:09:12;4.57;;;1.40;;
41921;SDS011;27609;51.002;5.354;2023-07-29T00:11:37;2.45;;;1.48;;
41921;SDS011;27609;51.002;5.354;2023-07-29T00:14:03;2.00;;;1.80;;
41921;SDS011;27609;51.002;5.354;2023-07-29T00:16:29;3.03;;;1.85;;
41921;SDS011;27609;51.002;5.354;2023-07-29T00:18:54;2.20;;;1.98;;
41921;SDS011;27609;51.002;5.354;2023-07-29T00:21:20;7.60;;;1.80;;
41921;SDS011;27609;51.002;5.354;2023-07-29T00:23:46;5.85;;;2.00;;
41921;SDS011;27609;51.002;5.354;2023-07-29T00:26:11;3.42;;;1.98;;
41921;SDS011;27609;51.002;5.354;2023-07-29T00:28:37;2.95;;;2.22;;
41921;SDS011;27609;51.002;5.354;2023-07-29T00:31:03;8.70;;;2.40;;
41921;SDS011;27609;51.002;5.354;2023-07-29T00:33:28;2.00;;;1.90;;
41921;SDS011;27609;51.002;5.354;2023-07-29T00:35:54;2.75;;;2.22;;
41921;SDS011;27609;51.002;5.354;2023-07-29T00:38:20;3.50;;;2.22;;
41921;SDS011;27609;51.002;5.354;2023-07-29T00:40:45;5.43;;;2.50;;
41921;SDS011;27609;51.002;5.354;2023-07-29T00:43:11;3.28;;;2.50;;
41921;SDS011;27609;51.002;5.354;2023-07-29T00:45:37;2.63;;;2.22;;
41921;SDS011;27609;51.002;5.354;2023-07-29T00:48:04;2.75;;;2.13;;
41921;SDS011;27609;51.002;5.354;2023-07-29T00:50:31;4.53;;;2.03;;
41921;SDS011;27609;51.002;5.354;2023-07-29T00:52:57;5.05;;;2.33;;
41921;SDS011;27609;51.002;5.354;2023-07-29T00:55:23;2.30;;;1.90;;
41921;SDS011;27609;51.002;5.354;2023-07-29T00:57:50;9.50;;;2.67;;
41921;SDS011;27609;51.002;5.354;2023-07-29T01:00:19;3.37;;;2.03;;
41921;SDS011;27609;51.002;5.354;2023-07-29T01:02:46;6.43;;;2.90;;
41921;SDS011;27609;51.002;5.354;2023-07-29T01:05:12;3.88;;;2.55;;
41921;SDS011;27609;51.002;5.354;2023-07-29T01:15:55;4.40;;;2.70;;
41921;SDS011;27609;51.002;5.354;2023-07-29T01:18:32;3.38;;;2.83;;
41921;SDS011;27609;51.002;5.354;2023-07-29T01:21:03;2.88;;;2.67;;
41921;SDS011;27609;51.002;5.354;2023-07-29T01:23:31;3.50;;;3.20;;
41921;SDS011;27609;51.002;5.354;2023-07-29T01:25:58;3.17;;;2.90;;
41921;SDS011;27609;51.002;5.354;2023-07-29T01:28:24;3.22;;;2.63;;
41921;SDS011;27609;51.002;5.354;2023-07-29T01:30:51;7.30;;;2.80;;
41921;SDS011;27609;51.002;5.354;2023-07-29T01:33:26;6.72;;;2.75;;
41921;SDS011;27609;51.002;5.354;2023-07-29T01:35:57;5.13;;;3.15;;
41921;SDS011;27609;51.002;5.354;2023-07-29T01:38:36;3.45;;;3.15;;
41921;SDS011;27609;51.002;5.354;2023-07-29T01:41:06;3.85;;;3.28;;
41921;SDS011;27609;51.002;5.354;2023-07-29T01:43:33;5.28;;;3.08;;
41921;SDS011;27609;51.002;5.354;2023-07-29T01:46:00;6.75;;;3.05;;
41921;SDS011;27609;51.002;5.354;2023-07-29T01:48:26;4.05;;;3.25;;
41921;SDS011;27609;51.002;5.354;2023-07-29T01:50:53;10.77;;;3.63;;
41921;SDS011;27609;51.002;5.354;2023-07-29T01:53:19;5.80;;;3.80;;
41921;SDS011;27609;51.002;5.354;2023-07-29T01:55:45;4.80;;;3.60;;
41921;SDS011;27609;51.002;5.354;2023-07-29T01:58:10;8.35;;;3.75;;
41921;SDS011;27609;51.002;5.354;2023-07-29T02:00:36;5.95;;;3.58;;
41921;SDS011;27609;51.002;5.354;2023-07-29T02:03:02;6.10;;;3.78;;
41921;SDS011;27609;51.002;5.354;2023-07-29T02:05:28;3.72;;;3.42;;
41921;SDS011;27609;51.002;5.354;2023-07-29T02:07:53;3.88;;;3.47;;
41921;SDS011;27609;51.002;5.354;2023-07-29T02:10:19;4.72;;;3.25;;
41921;SDS011;27609;51.002;5.354;2023-07-29T02:12:45;5.43;;;3.58;;
41921;SDS011;27609;51.002;5.354;2023-07-29T02:15:10;5.13;;;2.63;;
41921;SDS011;27609;51.002;5.354;2023-07-29T02:17:36;4.93;;;2.85;;
41921;SDS011;27609;51.002;5.354;2023-07-29T02:20:02;2.70;;;2.50;;
41921;SDS011;27609;51.002;5.354;2023-07-29T02:22:28;3.35;;;2.47;;
41921;SDS011;27609;51.002;5.354;2023-07-29T02:24:54;3.90;;;2.22;;
41921;SDS011;27609;51.002;5.354;2023-07-29T02:27:20;2.75;;;1.98;;
41921;SDS011;27609;51.002;5.354;2023-07-29T02:29:46;2.55;;;1.90;;
41921;SDS011;27609;51.002;5.354;2023-07-29T02:32:11;4.47;;;1.77;;
41921;SDS011;27609;51.002;5.354;2023-07-29T02:34:37;3.25;;;2.47;;
41921;SDS011;27609;51.002;5.354;2023-07-29T02:37:03;2.95;;;1.90;;
41921;SDS011;27609;51.002;5.354;2023-07-29T02:39:29;2.45;;;1.98;;
41921;SDS011;27609;51.002;5.354;2023-07-29T02:41:54;4.95;;;2.10;;
41921;SDS011;27609;51.002;5.354;2023-07-29T02:44:21;2.15;;;1.90;;
41921;SDS011;27609;51.002;5.354;2023-07-29T02:46:46;2.15;;;1.95;;
41921;SDS011;27609;51.002;5.354;2023-07-29T02:49:12;2.55;;;1.90;;
41921;SDS011;27609;51.002;5.354;2023-07-29T02:51:38;2.78;;;2.03;;
41921;SDS011;27609;51.002;5.354;2023-07-29T02:54:03;3.72;;;2.30;;
41921;SDS011;27609;51.002;5.354;2023-07-29T02:56:29;4.13;;;2.25;;
41921;SDS011;27609;51.002;5.354;2023-07-29T02:58:55;6.25;;;1.70;;
41921;SDS011;27609;51.002;5.354;2023-07-29T03:01:22;2.63;;;2.20;;
41921;SDS011;27609;51.002;5.354;2023-07-29T03:03:50;3.10;;;2.10;;
41921;SDS011;27609;51.002;5.354;2023-07-29T03:06:16;5.43;;;2.20;;
41921;SDS011;27609;51.002;5.354;2023-07-29T03:08:41;6.78;;;2.25;;
41921;SDS011;27609;51.002;5.354;2023-07-29T03:11:08;3.85;;;2.28;;
41921;SDS011;27609;51.002;5.354;2023-07-29T03:13:36;3.75;;;1.63;;
41921;SDS011;27609;51.002;5.354;2023-07-29T03:16:08;3.40;;;2.28;;
41921;SDS011;27609;51.002;5.354;2023-07-29T03:18:39;3.65;;;2.38;;
41921;SDS011;27609;51.002;5.354;2023-07-29T03:21:04;5.50;;;2.33;;
41921;SDS011;27609;51.002;5.354;2023-07-29T03:23:31;4.40;;;2.05;;
41921;SDS011;27609;51.002;5.354;2023-07-29T03:25:58;4.05;;;2.08;;
41921;SDS011;27609;51.002;5.354;2023-07-29T03:28:28;8.10;;;2.28;;
41921;SDS011;27609;51.002;5.354;2023-07-29T03:30:57;5.22;;;2.58;;
41921;SDS011;27609;51.002;5.354;2023-07-29T03:33:24;2.38;;;2.17;;
41921;SDS011;27609;51.002;5.354;2023-07-29T03:35:50;2.60;;;2.35;;
41921;SDS011;27609;51.002;5.354;2023-07-29T03:38:16;2.45;;;2.25;;
41921;SDS011;27609;51.002;5.354;2023-07-29T03:40:42;2.78;;;2.30;;
41921;SDS011;27609;51.002;5.354;2023-07-29T03:43:08;2.80;;;2.13;;
41921;SDS011;27609;51.002;5.354;2023-07-29T03:45:34;2.17;;;1.80;;
41921;SDS011;27609;51.002;5.354;2023-07-29T03:48:01;3.38;;;2.30;;
41921;SDS011;27609;51.002;5.354;2023-07-29T03:50:28;3.92;;;1.70;;
41921;SDS011;27609;51.002;5.354;2023-07-29T03:52:54;4.78;;;1.67;;
41921;SDS011;27609;51.002;5.354;2023-07-29T03:55:20;1.80;;;1.35;;
41921;SDS011;27609;51.002;5.354;2023-07-29T03:57:46;2.65;;;1.60;;
41921;SDS011;27609;51.002;5.354;2023-07-29T04:00:11;2.95;;;2.05;;
41921;SDS011;27609;51.002;5.354;2023-07-29T04:02:38;3.95;;;1.88;;
41921;SDS011;27609;51.002;5.354;2023-07-29T04:05:04;3.22;;;1.70;;
41921;SDS011;27609;51.002;5.354;2023-07-29T04:07:33;4.93;;;1.92;;
41921;SDS011;27609;51.002;5.354;2023-07-29T04:09:59;2.88;;;1.80;;
41921;SDS011;27609;51.002;5.354;2023-07-29T04:12:25;3.38;;;1.95;;
41921;SDS011;27609;51.002;5.354;2023-07-29T04:14:51;3.53;;;1.98;;
41921;SDS011;27609;51.002;5.354;2023-07-29T04:17:17;3.28;;;1.67;;
41921;SDS011;27609;51.002;5.354;2023-07-29T04:19:43;6.35;;;1.95;;
41921;SDS011;27609;51.002;5.354;2023-07-29T04:22:09;2.88;;;1.92;;
41921;SDS011;27609;51.002;5.354;2023-07-29T04:24:34;6.43;;;2.13;;
41921;SDS011;27609;51.002;5.354;2023-07-29T04:27:00;6.78;;;2.30;;
41921;SDS011;27609;51.002;5.354;2023-07-29T04:29:26;4.43;;;1.88;;
41921;SDS011;27609;51.002;5.354;2023-07-29T04:31:52;4.80;;;2.38;;
41921;SDS011;27609;51.002;5.354;2023-07-29T04:34:18;2.10;;;1.80;;
41921;SDS011;27609;51.002;5.354;2023-07-29T04:36:44;3.97;;;1.83;;
41921;SDS011;27609;51.002;5.354;2023-07-29T04:39:11;2.53;;;2.00;;
41921;SDS011;27609;51.002;5.354;2023-07-29T04:41:36;3.70;;;1.90;;
41921;SDS011;27609;51.002;5.354;2023-07-29T04:44:02;4.43;;;2.00;;
41921;SDS011;27609;51.002;5.354;2023-07-29T04:46:28;3.60;;;1.85;;
41921;SDS011;27609;51.002;5.354;2023-07-29T04:48:54;2.40;;;2.03;;
41921;SDS011;27609;51.002;5.354;2023-07-29T04:51:19;5.30;;;2.20;;
41921;SDS011;27609;51.002;5.354;2023-07-29T04:53:45;3.20;;;2.33;;
41921;SDS011;27609;51.002;5.354;2023-07-29T04:56:11;5.53;;;2.15;;
41921;SDS011;27609;51.002;5.354;2023-07-29T04:58:36;4.20;;;1.83;;
41921;SDS011;27609;51.002;5.354;2023-07-29T05:01:02;3.05;;;2.33;;
41921;SDS011;27609;51.002;5.354;2023-07-29T05:03:28;3.75;;;2.33;;
41921;SDS011;27609;51.002;5.354;2023-07-29T05:05:54;2.70;;;2.47;;
41921;SDS011;27609;51.002;5.354;2023-07-29T05:08:21;3.67;;;2.25;;
41921;SDS011;27609;51.002;5.354;2023-07-29T05:10:50;2.42;;;2.00;;
41921;SDS011;27609;51.002;5.354;2023-07-29T05:13:17;3.97;;;2.00;;
41921;SDS011;27609;51.002;5.354;2023-07-29T05:15:43;4.93;;;2.58;;
41921;SDS011;27609;51.002;5.354;2023-07-29T05:18:08;3.80;;;2.15;;
41921;SDS011;27609;51.002;5.354;2023-07-29T05:20:34;3.28;;;2.05;;
41921;SDS011;27609;51.002;5.354;2023-07-29T05:23:00;4.50;;;2.17;;
41921;SDS011;27609;51.002;5.354;2023-07-29T05:25:26;5.97;;;2.22;;
41921;SDS011;27609;51.002;5.354;2023-07-29T05:27:52;3.92;;;1.90;;
41921;SDS011;27609;51.002;5.354;2023-07-29T05:30:18;4.60;;;2.00;;
41921;SDS011;27609;51.002;5.354;2023-07-29T05:32:43;3.45;;;2.00;;
41921;SDS011;27609;51.002;5.354;2023-07-29T05:35:09;2.50;;;1.83;;
41921;SDS011;27609;51.002;5.354;2023-07-29T05:37:37;2.97;;;1.75;;
41921;SDS011;27609;51.002;5.354;2023-07-29T05:40:04;1.70;;;1.57;;
41921;SDS011;27609;51.002;5.354;2023-07-29T05:42:31;1.67;;;1.58;;
41921;SDS011;27609;51.002;5.354;2023-07-29T05:44:57;4.68;;;1.67;;
41921;SDS011;27609;51.002;5.354;2023-07-29T05:47:23;3.97;;;1.88;;
41921;SDS011;27609;51.002;5.354;2023-07-29T05:49:49;4.65;;;1.77;;
41921;SDS011;27609;51.002;5.354;2023-07-29T05:52:14;4.13;;;1.50;;
41921;SDS011;27609;51.002;5.354;2023-07-29T05:54:40;1.77;;;1.67;;
41921;SDS011;27609;51.002;5.354;2023-07-29T05:57:08;4.03;;;1.63;;
41921;SDS011;27609;51.002;5.354;2023-07-29T05:59:35;3.45;;;1.60;;
41921;SDS011;27609;51.002;5.354;2023-07-29T06:02:00;2.97;;;1.63;;
41921;SDS011;27609;51.002;5.354;2023-07-29T06:04:26;2.60;;;1.63;;
41921;SDS011;27609;51.002;5.354;2023-07-29T06:06:52;4.70;;;1.88;;
41921;SDS011;27609;51.002;5.354;2023-07-29T06:09:18;2.20;;;1.42;;
41921;SDS011;27609;51.002;5.354;2023-07-29T06:11:43;6.05;;;1.52;;
41921;SDS011;27609;51.002;5.354;2023-07-29T06:14:09;1.85;;;1.40;;
41921;SDS011;27609;51.002;5.354;2023-07-29T06:16:34;1.85;;;1.60;;
41921;SDS011;27609;51.002;5.354;2023-07-29T06:19:00;3.80;;;1.50;;
41921;SDS011;27609;51.002;5.354;2023-07-29T06:21:26;3.78;;;1.60;;
41921;SDS011;27609;51.002;5.354;2023-07-29T06:23:52;1.83;;;1.33;;
41921;SDS011;27609;51.002;5.354;2023-07-29T06:26:18;3.47;;;1.27;;
41921;SDS011;27609;51.002;5.354;2023-07-29T06:28:43;4.15;;;1.40;;
41921;SDS011;27609;51.002;5.354;2023-07-29T06:31:09;3.70;;;1.33;;
41921;SDS011;27609;51.002;5.354;2023-07-29T06:33:35;1.67;;;1.55;;
41921;SDS011;27609;51.002;5.354;2023-07-29T06:36:01;2.33;;;1.30;;
41921;SDS011;27609;51.002;5.354;2023-07-29T06:38:26;3.88;;;1.52;;
41921;SDS011;27609;51.002;5.354;2023-07-29T06:40:52;2.83;;;1.50;;
41921;SDS011;27609;51.002;5.354;2023-07-29T06:43:18;6.35;;;1.73;;
41921;SDS011;27609;51.002;5.354;2023-07-29T06:45:43;3.13;;;1.67;;
41921;SDS011;27609;51.002;5.354;2023-07-29T06:48:09;6.03;;;1.27;;
41921;SDS011;27609;51.002;5.354;2023-07-29T06:50:35;2.92;;;1.10;;
41921;SDS011;27609;51.002;5.354;2023-07-29T06:53:00;1.35;;;1.15;;
41921;SDS011;27609;51.002;5.354;2023-07-29T06:55:26;1.58;;;1.13;;
41921;SDS011;27609;51.002;5.354;2023-07-29T06:57:51;3.90;;;1.10;;
41921;SDS011;27609;51.002;5.354;2023-07-29T07:00:17;2.83;;;1.05;;
41921;SDS011;27609;51.002;5.354;2023-07-29T07:02:43;5.50;;;1.23;;
41921;SDS011;27609;51.002;5.354;2023-07-29T07:05:08;1.75;;;0.80;;
41921;SDS011;27609;51.002;5.354;2023-07-29T07:07:34;0.75;;;0.75;;
41921;SDS011;27609;51.002;5.354;2023-07-29T07:10:00;2.85;;;1.10;;
41921;SDS011;27609;51.002;5.354;2023-07-29T07:12:26;1.17;;;0.77;;
41921;SDS011;27609;51.002;5.354;2023-07-29T07:14:51;4.72;;;1.40;;
41921;SDS011;27609;51.002;5.354;2023-07-29T07:17:17;2.00;;;1.10;;
41921;SDS011;27609;51.002;5.354;2023-07-29T07:19:43;1.17;;;0.77;;
41921;SDS011;27609;51.002;5.354;2023-07-29T07:22:08;3.60;;;1.20;;
41921;SDS011;27609;51.002;5.354;2023-07-29T07:24:34;2.45;;;1.33;;
41921;SDS011;27609;51.002;5.354;2023-07-29T07:27:00;0.80;;;0.80;;
41921;SDS011;27609;51.002;5.354;2023-07-29T07:29:25;4.00;;;1.02;;
41921;SDS011;27609;51.002;5.354;2023-07-29T07:31:52;1.25;;;1.13;;
41921;SDS011;27609;51.002;5.354;2023-07-29T07:34:21;1.27;;;1.00;;
41921;SDS011;27609;51.002;5.354;2023-07-29T07:36:47;1.17;;;0.93;;
41921;SDS011;27609;51.002;5.354;2023-07-29T07:39:13;1.70;;;0.88;;
41921;SDS011;27609;51.002;5.354;2023-07-29T07:41:39;1.65;;;1.20;;
41921;SDS011;27609;51.002;5.354;2023-07-29T07:44:06;1.75;;;1.00;;
41921;SDS011;27609;51.002;5.354;2023-07-29T07:46:31;1.70;;;0.82;;
41921;SDS011;27609;51.002;5.354;2023-07-29T07:48:57;1.65;;;0.85;;
41921;SDS011;27609;51.002;5.354;2023-07-29T07:51:23;2.67;;;1.00;;
41921;SDS011;27609;51.002;5.354;2023-07-29T07:53:48;2.47;;;0.95;;
41921;SDS011;27609;51.002;5.354;2023-07-29T07:56:14;2.20;;;0.98;;
41921;SDS011;27609;51.002;5.354;2023-07-29T07:58:40;1.27;;;1.00;;
41921;SDS011;27609;51.002;5.354;2023-07-29T08:01:06;1.25;;;0.82;;
41921;SDS011;27609;51.002;5.354;2023-07-29T08:03:33;3.95;;;0.75;;
41921;SDS011;27609;51.002;5.354;2023-07-29T08:05:59;0.98;;;0.98;;
41921;SDS011;27609;51.002;5.354;2023-07-29T08:08:25;1.33;;;1.17;;
41921;SDS011;27609;51.002;5.354;2023-07-29T08:10:55;3.25;;;1.13;;
41921;SDS011;27609;51.002;5.354;2023-07-29T08:15:48;2.53;;;1.08;;
41921;SDS011;27609;51.002;5.354;2023-07-29T08:18:15;1.73;;;1.02;;
41921;SDS011;27609;51.002;5.354;2023-07-29T08:20:41;2.05;;;0.98;;
41921;SDS011;27609;51.002;5.354;2023-07-29T08:23:16;2.30;;;1.33;;
41921;SDS011;27609;51.002;5.354;2023-07-29T08:25:41;3.60;;;1.40;;
41921;SDS011;27609;51.002;5.354;2023-07-29T08:28:07;1.10;;;1.00;;
41921;SDS011;27609;51.002;5.354;2023-07-29T08:30:32;5.13;;;1.15;;
41921;SDS011;27609;51.002;5.354;2023-07-29T08:32:58;1.85;;;0.90;;
41921;SDS011;27609;51.002;5.354;2023-07-29T08:35:24;3.22;;;1.10;;
41921;SDS011;27609;51.002;5.354;2023-07-29T08:37:49;1.77;;;1.02;;
41921;SDS011;27609;51.002;5.354;2023-07-29T08:40:15;1.58;;;1.10;;
41921;SDS011;27609;51.002;5.354;2023-07-29T08:42:41;2.03;;;1.52;;
41921;SDS011;27609;51.002;5.354;2023-07-29T08:45:10;3.38;;;1.30;;
41921;SDS011;27609;51.002;5.354;2023-07-29T08:47:36;2.00;;;1.30;;
41921;SDS011;27609;51.002;5.354;2023-07-29T08:50:02;2.15;;;1.30;;
41921;SDS011;27609;51.002;5.354;2023-07-29T08:52:29;2.10;;;1.55;;
41921;SDS011;27609;51.002;5.354;2023-07-29T08:54:57;1.90;;;1.15;;
41921;SDS011;27609;51.002;5.354;2023-07-29T08:57:23;1.45;;;0.88;;
41921;SDS011;27609;51.002;5.354;2023-07-29T08:59:49;1.05;;;0.95;;
41921;SDS011;27609;51.002;5.354;2023-07-29T09:02:15;1.80;;;1.20;;
41921;SDS011;27609;51.002;5.354;2023-07-29T09:04:40;4.03;;;1.10;;
41921;SDS011;27609;51.002;5.354;2023-07-29T09:07:07;2.92;;;1.05;;
41921;SDS011;27609;51.002;5.354;2023-07-29T09:09:33;0.85;;;0.85;;
41921;SDS011;27609;51.002;5.354;2023-07-29T09:11:59;1.27;;;0.90;;
41921;SDS011;27609;51.002;5.354;2023-07-29T09:14:25;4.90;;;1.02;;
41921;SDS011;27609;51.002;5.354;2023-07-29T09:16:51;1.20;;;1.00;;
41921;SDS011;27609;51.002;5.354;2023-07-29T09:19:18;1.33;;;0.88;;
41921;SDS011;27609;51.002;5.354;2023-07-29T09:21:45;1.55;;;0.93;;
41921;SDS011;27609;51.002;5.354;2023-07-29T09:24:12;1.60;;;0.77;;
41921;SDS011;27609;51.002;5.354;2023-07-29T09:26:40;3.25;;;1.05;;
41921;SDS011;27609;51.002;5.354;2023-07-29T09:29:14;5.22;;;1.05;;
41921;SDS011;27609;51.002;5.354;2023-07-29T09:31:40;2.78;;;1.15;;
41921;SDS011;27609;51.002;5.354;2023-07-29T09:34:05;1.20;;;0.90;;
41921;SDS011;27609;51.002;5.354;2023-07-29T09:36:32;3.22;;;0.98;;
41921;SDS011;27609;51.002;5.354;2023-07-29T09:38:58;2.35;;;0.88;;
41921;SDS011;27609;51.002;5.354;2023-07-29T09:41:28;1.10;;;0.88;;
41921;SDS011;27609;51.002;5.354;2023-07-29T09:43:57;1.77;;;1.20;;
41921;SDS011;27609;51.002;5.354;2023-07-29T09:46:32;3.40;;;0.90;;
41921;SDS011;27609;51.002;5.354;2023-07-29T09:48:59;1.33;;;0.77;;
41921;SDS011;27609;51.002;5.354;2023-07-29T09:51:26;2.25;;;0.95;;
41921;SDS011;27609;51.002;5.354;2023-07-29T09:53:52;1.67;;;1.00;;
41921;SDS011;27609;51.002;5.354;2023-07-29T09:56:18;2.17;;;1.10;;
41921;SDS011;27609;51.002;5.354;2023-07-29T09:58:52;2.55;;;1.00;;
41921;SDS011;27609;51.002;5.354;2023-07-29T10:01:20;2.20;;;0.70;;
41921;SDS011;27609;51.002;5.354;2023-07-29T10:03:46;1.45;;;1.00;;
41921;SDS011;27609;51.002;5.354;2023-07-29T10:06:14;2.22;;;0.93;;
41921;SDS011;27609;51.002;5.354;2023-07-29T10:08:40;1.77;;;1.00;;
41921;SDS011;27609;51.002;5.354;2023-07-29T10:11:08;1.23;;;0.88;;
41921;SDS011;27609;51.002;5.354;2023-07-29T10:13:35;1.35;;;1.10;;
41921;SDS011;27609;51.002;5.354;2023-07-29T10:16:02;1.85;;;1.15;;
41921;SDS011;27609;51.002;5.354;2023-07-29T10:18:29;2.97;;;0.95;;
41921;SDS011;27609;51.002;5.354;2023-07-29T10:20:56;1.20;;;1.08;;
41921;SDS011;27609;51.002;5.354;2023-07-29T10:23:24;1.98;;;0.98;;
41921;SDS011;27609;51.002;5.354;2023-07-29T10:25:57;1.27;;;1.00;;
41921;SDS011;27609;51.002;5.354;2023-07-29T10:28:29;3.20;;;1.23;;
41921;SDS011;27609;51.002;5.354;2023-07-29T10:30:56;3.53;;;1.13;;
41921;SDS011;27609;51.002;5.354;2023-07-29T10:33:22;2.15;;;1.00;;
41921;SDS011;27609;51.002;5.354;2023-07-29T10:35:48;1.77;;;1.30;;
41921;SDS011;27609;51.002;5.354;2023-07-29T10:38:14;1.65;;;1.20;;
41921;SDS011;27609;51.002;5.354;2023-07-29T10:40:49;2.95;;;1.20;;
41921;SDS011;27609;51.002;5.354;2023-07-29T10:43:23;1.33;;;1.20;;
41921;SDS011;27609;51.002;5.354;2023-07-29T10:45:56;1.27;;;1.17;;
41921;SDS011;27609;51.002;5.354;2023-07-29T10:48:40;1.40;;;0.80;;
41921;SDS011;27609;51.002;5.354;2023-07-29T10:51:22;2.25;;;1.00;;
41921;SDS011;27609;51.002;5.354;2023-07-29T10:53:56;2.03;;;1.20;;
41921;SDS011;27609;51.002;5.354;2023-07-29T10:56:31;1.30;;;1.20;;
41921;SDS011;27609;51.002;5.354;2023-07-29T10:58:59;3.72;;;1.13;;
41921;SDS011;27609;51.002;5.354;2023-07-29T11:01:51;2.80;;;1.33;;
41921;SDS011;27609;51.002;5.354;2023-07-29T11:15:23;3.40;;;1.60;;
41921;SDS011;27609;51.002;5.354;2023-07-29T11:17:52;4.22;;;1.48;;
41921;SDS011;27609;51.002;5.354;2023-07-29T11:20:20;1.40;;;1.30;;
41921;SDS011;27609;51.002;5.354;2023-07-29T11:22:52;2.90;;;1.55;;
41921;SDS011;27609;51.002;5.354;2023-07-29T11:25:18;2.58;;;1.33;;
41921;SDS011;27609;51.002;5.354;2023-07-29T11:27:44;2.03;;;1.40;;
41921;SDS011;27609;51.002;5.354;2023-07-29T11:30:11;1.80;;;1.52;;
41921;SDS011;27609;51.002;5.354;2023-07-29T11:32:39;5.78;;;1.92;;
41921;SDS011;27609;51.002;5.354;2023-07-29T11:35:06;1.83;;;1.60;;
41921;SDS011;27609;51.002;5.354;2023-07-29T11:37:35;2.40;;;1.67;;
41921;SDS011;27609;51.002;5.354;2023-07-29T11:40:01;1.27;;;1.17;;
41921;SDS011;27609;51.002;5.354;2023-07-29T11:42:27;2.15;;;1.42;;
41921;SDS011;27609;51.002;5.354;2023-07-29T11:44:57;2.35;;;1.50;;
41921;SDS011;27609;51.002;5.354;2023-07-29T11:47:23;2.78;;;1.70;;
41921;SDS011;27609;51.002;5.354;2023-07-29T11:49:49;2.55;;;1.90;;
41921;SDS011;27609;51.002;5.354;2023-07-29T11:52:15;2.42;;;1.75;;
41921;SDS011;27609;51.002;5.354;2023-07-29T11:54:44;2.85;;;1.67;;
41921;SDS011;27609;51.002;5.354;2023-07-29T11:57:14;3.17;;;1.80;;
41921;SDS011;27609;51.002;5.354;2023-07-29T11:59:40;2.13;;;1.92;;
41921;SDS011;27609;51.002;5.354;2023-07-29T12:02:11;2.53;;;1.92;;
41921;SDS011;27609;51.002;5.354;2023-07-29T12:04:38;1.90;;;1.73;;
41921;SDS011;27609;51.002;5.354;2023-07-29T12:07:05;1.70;;;1.40;;
41921;SDS011;27609;51.002;5.354;2023-07-29T12:09:31;1.40;;;1.30;;
41921;SDS011;27609;51.002;5.354;2023-07-29T12:11:57;3.17;;;1.70;;
41921;SDS011;27609;51.002;5.354;2023-07-29T12:14:28;1.58;;;1.48;;
41921;SDS011;27609;51.002;5.354;2023-07-29T12:16:54;2.03;;;1.73;;
41921;SDS011;27609;51.002;5.354;2023-07-29T12:19:19;3.03;;;1.85;;
41921;SDS011;27609;51.002;5.354;2023-07-29T12:21:47;2.65;;;1.73;;
41921;SDS011;27609;51.002;5.354;2023-07-29T12:24:13;5.07;;;1.75;;
41921;SDS011;27609;51.002;5.354;2023-07-29T12:26:40;2.33;;;1.63;;
41921;SDS011;27609;51.002;5.354;2023-07-29T12:29:17;3.60;;;1.50;;
41921;SDS011;27609;51.002;5.354;2023-07-29T12:31:46;1.80;;;1.42;;
41921;SDS011;27609;51.002;5.354;2023-07-29T12:34:19;2.30;;;1.60;;
41921;SDS011;27609;51.002;5.354;2023-07-29T12:36:49;1.95;;;1.27;;
41921;SDS011;27609;51.002;5.354;2023-07-29T12:41:52;2.10;;;1.58;;
41921;SDS011;27609;51.002;5.354;2023-07-29T12:44:19;4.57;;;1.90;;
41921;SDS011;27609;51.002;5.354;2023-07-29T12:46:45;5.47;;;2.35;;
41921;SDS011;27609;51.002;5.354;2023-07-29T12:49:11;2.30;;;2.03;;
41921;SDS011;27609;51.002;5.354;2023-07-29T12:51:37;3.63;;;1.90;;
41921;SDS011;27609;51.002;5.354;2023-07-29T12:54:03;3.30;;;1.30;;
41921;SDS011;27609;51.002;5.354;2023-07-29T12:56:30;1.35;;;1.25;;
41921;SDS011;27609;51.002;5.354;2023-07-29T12:58:56;1.65;;;0.90;;
41921;SDS011;27609;51.002;5.354;2023-07-29T13:01:23;0.90;;;0.88;;
41921;SDS011;27609;51.002;5.354;2023-07-29T13:03:49;1.77;;;1.00;;
41921;SDS011;27609;51.002;5.354;2023-07-29T13:06:15;1.60;;;1.10;;
41921;SDS011;27609;51.002;5.354;2023-07-29T13:08:41;3.60;;;1.08;;
41921;SDS011;27609;51.002;5.354;2023-07-29T13:11:08;1.25;;;0.80;;
41921;SDS011;27609;51.002;5.354;2023-07-29T13:13:33;5.07;;;1.20;;
41921;SDS011;27609;51.002;5.354;2023-07-29T13:15:59;1.38;;;1.27;;
41921;SDS011;27609;51.002;5.354;2023-07-29T13:18:26;2.55;;;1.63;;
41921;SDS011;27609;51.002;5.354;2023-07-29T13:20:52;2.17;;;1.13;;
41921;SDS011;27609;51.002;5.354;2023-07-29T13:23:18;2.75;;;1.83;;
41921;SDS011;27609;51.002;5.354;2023-07-29T13:25:43;1.50;;;1.23;;
41921;SDS011;27609;51.002;5.354;2023-07-29T13:28:09;3.47;;;1.40;;
41921;SDS011;27609;51.002;5.354;2023-07-29T13:30:35;1.83;;;1.50;;
41921;SDS011;27609;51.002;5.354;2023-07-29T13:33:01;2.58;;;1.85;;
41921;SDS011;27609;51.002;5.354;2023-07-29T13:35:27;2.58;;;1.80;;
41921;SDS011;27609;51.002;5.354;2023-07-29T13:37:53;3.30;;;2.40;;
41921;SDS011;27609;51.002;5.354;2023-07-29T13:40:19;2.42;;;2.20;;
41921;SDS011;27609;51.002;5.354;2023-07-29T13:42:44;2.50;;;2.28;;
41921;SDS011;27609;51.002;5.354;2023-07-29T13:45:10;2.90;;;2.47;;
41921;SDS011;27609;51.002;5.354;2023-07-29T13:47:36;3.05;;;2.38;;
41921;SDS011;27609;51.002;5.354;2023-07-29T13:50:01;7.28;;;2.00;;
41921;SDS011;27609;51.002;5.354;2023-07-29T13:52:27;4.50;;;2.40;;
41921;SDS011;27609;51.002;5.354;2023-07-29T13:54:53;2.03;;;1.80;;
41921;SDS011;27609;51.002;5.354;2023-07-29T13:57:19;2.58;;;1.42;;
41921;SDS011;27609;51.002;5.354;2023-07-29T13:59:44;3.08;;;1.73;;
41921;SDS011;27609;51.002;5.354;2023-07-29T14:02:10;1.77;;;1.60;;
41921;SDS011;27609;51.002;5.354;2023-07-29T14:04:36;3.55;;;1.40;;
41921;SDS011;27609;51.002;5.354;2023-07-29T14:07:01;1.77;;;1.50;;
41921;SDS011;27609;51.002;5.354;2023-07-29T14:09:27;1.38;;;1.20;;
41921;SDS011;27609;51.002;5.354;2023-07-29T14:11:56;2.90;;;1.20;;
41921;SDS011;27609;51.002;5.354;2023-07-29T14:14:21;1.40;;;1.30;;
41921;SDS011;27609;51.002;5.354;2023-07-29T14:16:47;1.77;;;1.50;;
41921;SDS011;27609;51.002;5.354;2023-07-29T14:19:14;1.30;;;1.20;;
41921;SDS011;27609;51.002;5.354;2023-07-29T14:21:40;3.20;;;1.60;;
41921;SDS011;27609;51.002;5.354;2023-07-29T14:24:05;1.25;;;1.15;;
41921;SDS011;27609;51.002;5.354;2023-07-29T14:26:31;3.70;;;1.27;;
41921;SDS011;27609;51.002;5.354;2023-07-29T14:28:57;1.30;;;1.20;;
41921;SDS011;27609;51.002;5.354;2023-07-29T14:31:22;1.30;;;1.20;;
41921;SDS011;27609;51.002;5.354;2023-07-29T14:33:48;3.33;;;1.23;;
41921;SDS011;27609;51.002;5.354;2023-07-29T14:36:16;1.75;;;1.48;;
41921;SDS011;27609;51.002;5.354;2023-07-29T14:38:42;4.28;;;1.25;;
41921;SDS011;27609;51.002;5.354;2023-07-29T14:41:08;1.50;;;1.40;;
41921;SDS011;27609;51.002;5.354;2023-07-29T14:43:34;2.28;;;1.60;;
41921;SDS011;27609;51.002;5.354;2023-07-29T14:46:00;1.65;;;1.50;;
41921;SDS011;27609;51.002;5.354;2023-07-29T14:48:27;1.35;;;1.25;;
41921;SDS011;27609;51.002;5.354;2023-07-29T14:50:52;2.13;;;1.88;;
41921;SDS011;27609;51.002;5.354;2023-07-29T14:53:18;1.40;;;1.30;;
41921;SDS011;27609;51.002;5.354;2023-07-29T14:55:44;3.35;;;1.65;;
41921;SDS011;27609;51.002;5.354;2023-07-29T14:58:10;1.77;;;1.50;;
41921;SDS011;27609;51.002;5.354;2023-07-29T15:00:36;1.60;;;1.50;;
41921;SDS011;27609;51.002;5.354;2023-07-29T15:03:02;1.83;;;1.30;;
41921;SDS011;27609;51.002;5.354;2023-07-29T15:05:28;2.83;;;1.35;;
41921;SDS011;27609;51.002;5.354;2023-07-29T15:07:53;1.58;;;1.20;;
41921;SDS011;27609;51.002;5.354;2023-07-29T15:10:19;1.20;;;1.20;;